createdAt,value
2017-04-19T00:00:38.449Z,0
2017-04-19T00:02:01.248Z,0
2017-04-19T00:03:22.458Z,0
2017-04-19T00:04:44.276Z,0
2017-04-19T00:06:06.100Z,0
2017-04-19T00:07:28.167Z,0
2017-04-19T00:08:50.666Z,0
2017-04-19T00:10:12.179Z,0
2017-04-19T00:11:34.317Z,0
2017-04-19T00:12:56.485Z,0
2017-04-19T00:14:18.002Z,0
2017-04-19T00:15:39.871Z,0
2017-04-19T00:17:01.393Z,0
2017-04-19T00:18:23.241Z,0
2017-04-19T00:19:45.075Z,0
2017-04-19T00:21:07.541Z,0
2017-04-19T00:22:30.017Z,0
2017-04-19T00:23:51.855Z,0
2017-04-19T00:25:13.824Z,0
2017-04-19T00:26:35.980Z,0
2017-04-19T00:27:58.193Z,0
2017-04-19T00:29:20.748Z,0
2017-04-19T00:30:42.553Z,0
2017-04-19T00:32:04.687Z,0
2017-04-19T00:33:26.648Z,0
2017-04-19T00:34:48.827Z,0
2017-04-19T00:36:10.647Z,0
2017-04-19T00:37:32.786Z,0
2017-04-19T00:38:54.615Z,0
2017-04-19T00:40:16.737Z,0
2017-04-19T00:41:38.562Z,0
2017-04-19T00:43:00.694Z,0
2017-04-19T00:44:22.588Z,0
2017-04-19T00:45:45.323Z,0
2017-04-19T00:47:07.147Z,0
2017-04-19T00:48:29.626Z,0
2017-04-19T00:49:52.201Z,0
2017-04-19T00:51:14.277Z,0
2017-04-19T00:52:36.217Z,0
2017-04-19T00:53:58.355Z,0
2017-04-19T00:55:19.868Z,0
2017-04-19T00:56:42.261Z,0
2017-04-19T00:58:04.228Z,0
2017-04-19T00:59:26.788Z,0
2017-04-19T01:00:48.612Z,0
2017-04-19T01:02:10.774Z,0
2017-04-19T01:03:31.953Z,0
2017-04-19T01:04:53.835Z,0
2017-04-19T01:06:15.979Z,0
2017-04-19T01:07:38.578Z,0
2017-04-19T01:09:00.449Z,0
2017-04-19T01:10:22.279Z,0
2017-04-19T01:11:44.095Z,0
2017-04-19T01:13:06.231Z,0
2017-04-19T01:14:28.038Z,0
2017-04-19T01:15:50.162Z,0
2017-04-19T01:17:11.652Z,0
2017-04-19T01:18:33.408Z,0
2017-04-19T01:19:54.906Z,0
2017-04-19T01:21:17.032Z,0
2017-04-19T01:22:39.162Z,0
2017-04-19T01:24:00.407Z,0
2017-04-19T01:25:22.544Z,0
2017-04-19T01:26:44.668Z,0
2017-04-19T01:28:06.283Z,0
2017-04-19T01:29:29.052Z,0
2017-04-19T01:30:51.246Z,0
2017-04-19T01:32:13.078Z,0
2017-04-19T01:33:34.646Z,0
2017-04-19T01:34:57.119Z,0
2017-04-19T01:36:19.039Z,0
2017-04-19T01:37:41.187Z,0
2017-04-19T01:39:03.014Z,0
2017-04-19T01:40:25.202Z,0
2017-04-19T01:41:47.079Z,0
2017-04-19T01:43:09.425Z,0
2017-04-19T01:44:31.238Z,0
2017-04-19T01:45:52.991Z,0
2017-04-19T01:47:15.136Z,0
2017-04-19T01:48:36.687Z,0
2017-04-19T01:49:58.522Z,0
2017-04-19T01:51:20.707Z,0
2017-04-19T01:52:41.906Z,0
2017-04-19T01:54:04.365Z,0
2017-04-19T01:55:26.502Z,0
2017-04-19T01:56:48.297Z,0
2017-04-19T01:58:10.438Z,0
2017-04-19T01:59:32.317Z,0
2017-04-19T02:00:54.352Z,0
2017-04-19T02:02:16.246Z,0
2017-04-19T02:03:38.390Z,0
2017-04-19T02:04:59.570Z,0
2017-04-19T02:06:21.770Z,0
2017-04-19T02:07:43.847Z,0
2017-04-19T02:09:05.968Z,0
2017-04-19T02:10:27.778Z,0
2017-04-19T02:11:49.689Z,0
2017-04-19T02:13:12.417Z,0
2017-04-19T02:14:33.934Z,0
2017-04-19T02:15:55.754Z,0
2017-04-19T02:17:17.574Z,0
2017-04-19T02:18:39.684Z,0
2017-04-19T02:20:01.827Z,0
2017-04-19T02:21:23.143Z,0
2017-04-19T02:22:44.653Z,0
2017-04-19T02:24:06.408Z,0
2017-04-19T02:25:28.250Z,0
2017-04-19T02:26:50.078Z,0
2017-04-19T02:28:11.588Z,0
2017-04-19T02:29:34.551Z,0
2017-04-19T02:30:56.674Z,0
2017-04-19T02:32:18.987Z,0
2017-04-19T02:33:40.902Z,0
2017-04-19T02:35:02.743Z,0
2017-04-19T02:36:24.872Z,0
2017-04-19T02:37:47.009Z,0
2017-04-19T02:39:09.470Z,0
2017-04-19T02:40:31.588Z,0
2017-04-19T02:41:53.086Z,0
2017-04-19T02:43:15.303Z,0
2017-04-19T02:44:37.447Z,0
2017-04-19T02:45:59.526Z,0
2017-04-19T02:47:21.159Z,0
2017-04-19T02:48:42.668Z,0
2017-04-19T02:50:03.868Z,0
2017-04-19T02:51:27.005Z,0
2017-04-19T02:52:48.557Z,0
2017-04-19T02:54:10.078Z,0
2017-04-19T02:55:31.947Z,0
2017-04-19T02:56:54.428Z,0
2017-04-19T02:58:16.556Z,0
2017-04-19T02:59:38.759Z,0
2017-04-19T03:01:00.921Z,0
2017-04-19T03:02:23.690Z,0
2017-04-19T03:03:45.398Z,0
2017-04-19T03:05:07.222Z,0
2017-04-19T03:06:29.418Z,0
2017-04-19T03:07:51.538Z,0
2017-04-19T03:09:13.985Z,0
2017-04-19T03:10:35.894Z,0
2017-04-19T03:11:58.046Z,0
2017-04-19T03:13:20.577Z,0
2017-04-19T03:14:42.718Z,0
2017-04-19T03:16:04.556Z,0
2017-04-19T03:17:26.377Z,0
2017-04-19T03:18:48.309Z,0
2017-04-19T03:20:10.657Z,0
2017-04-19T03:21:32.471Z,0
2017-04-19T03:22:54.313Z,0
2017-04-19T03:24:16.750Z,0
2017-04-19T03:26:10.541Z,0
2017-04-19T03:27:32.375Z,0
2017-04-19T03:28:54.187Z,0
2017-04-19T03:30:16.601Z,0
2017-04-19T03:31:38.471Z,0
2017-04-19T03:33:00.802Z,0
2017-04-19T03:34:22.665Z,0
2017-04-19T03:35:44.825Z,4
2017-04-19T03:37:07.067Z,0
2017-04-19T03:38:28.887Z,0
2017-04-19T03:39:50.801Z,4
2017-04-19T03:41:12.880Z,4
2017-04-19T03:42:35.118Z,8
2017-04-19T03:43:57.251Z,8
2017-04-19T03:45:19.088Z,4
2017-04-19T03:46:41.168Z,8
2017-04-19T03:48:02.987Z,8
2017-04-19T03:49:24.814Z,12
2017-04-19T03:50:46.006Z,16
2017-04-19T03:52:07.424Z,20
2017-04-19T03:53:28.970Z,24
2017-04-19T03:54:50.457Z,32
2017-04-19T03:56:12.335Z,36
2017-04-19T03:57:34.399Z,44
2017-04-19T03:58:56.222Z,56
2017-04-19T04:00:18.697Z,64
2017-04-19T04:01:40.659Z,80
2017-04-19T04:03:03.051Z,92
2017-04-19T04:04:24.570Z,108
2017-04-19T04:05:46.387Z,132
2017-04-19T04:07:08.848Z,156
2017-04-19T04:08:31.239Z,176
2017-04-19T04:09:53.371Z,204
2017-04-19T04:11:15.818Z,236
2017-04-19T04:12:37.318Z,272
2017-04-19T04:14:00.015Z,308
2017-04-19T04:15:22.479Z,348
2017-04-19T04:16:44.081Z,396
2017-04-19T04:18:05.898Z,440
2017-04-19T04:19:27.389Z,496
2017-04-19T04:20:49.203Z,548
2017-04-19T04:22:11.416Z,608
2017-04-19T04:23:33.551Z,672
2017-04-19T04:24:55.778Z,740
2017-04-19T04:26:18.260Z,816
2017-04-19T04:27:40.388Z,888
2017-04-19T04:29:02.203Z,964
2017-04-19T04:30:24.929Z,1048
2017-04-19T04:31:47.103Z,1132
2017-04-19T04:33:08.668Z,1220
2017-04-19T04:34:30.169Z,1308
2017-04-19T04:35:52.609Z,1400
2017-04-19T04:37:14.324Z,1492
2017-04-19T04:38:35.200Z,1588
2017-04-19T04:39:57.069Z,1684
2017-04-19T04:41:19.575Z,1784
2017-04-19T04:42:41.727Z,1880
2017-04-19T04:44:03.216Z,1976
2017-04-19T04:45:25.047Z,2076
2017-04-19T04:46:47.338Z,2172
2017-04-19T04:48:09.528Z,2260
2017-04-19T04:49:30.816Z,2348
2017-04-19T04:50:52.390Z,2436
2017-04-19T04:52:15.080Z,2532
2017-04-19T04:53:37.226Z,2616
2017-04-19T04:54:59.194Z,2704
2017-04-19T04:56:20.698Z,2784
2017-04-19T04:57:42.879Z,2864
2017-04-19T04:59:05.408Z,2948
2017-04-19T05:00:27.219Z,3028
2017-04-19T05:01:49.556Z,3108
2017-04-19T05:03:12.050Z,3192
2017-04-19T05:04:33.948Z,3272
2017-04-19T05:05:55.799Z,3352
2017-04-19T05:07:17.299Z,3428
2017-04-19T05:08:39.521Z,3500
2017-04-19T05:10:01.979Z,3572
2017-04-19T05:11:24.142Z,3648
2017-04-19T05:12:46.409Z,3720
2017-04-19T05:14:08.357Z,3788
2017-04-19T05:15:30.179Z,3864
2017-04-19T05:16:52.696Z,3936
2017-04-19T05:18:14.520Z,4008
2017-04-19T05:19:36.631Z,4088
2017-04-19T05:20:58.766Z,4192
2017-04-19T05:22:20.288Z,4308
2017-04-19T05:23:41.836Z,4460
2017-04-19T05:25:04.270Z,4804
2017-04-19T05:26:26.278Z,5192
2017-04-19T05:27:48.439Z,5696
2017-04-19T05:29:09.662Z,6396
2017-04-19T05:30:31.483Z,9116
2017-04-19T05:31:53.939Z,19200
2017-04-19T05:33:15.801Z,23904
2017-04-19T05:34:37.665Z,23904
2017-04-19T05:35:59.749Z,24032
2017-04-19T05:37:22.110Z,24672
2017-04-19T05:38:43.749Z,25376
2017-04-19T05:40:05.657Z,25344
2017-04-19T05:41:28.375Z,26432
2017-04-19T05:42:49.879Z,27968
2017-04-19T05:44:12.029Z,29440
2017-04-19T05:45:33.889Z,30816
2017-04-19T05:46:56.268Z,30528
2017-04-19T05:48:18.459Z,31232
2017-04-19T05:49:40.068Z,31296
2017-04-19T05:51:02.607Z,30720
2017-04-19T05:52:24.827Z,30272
2017-04-19T05:53:46.021Z,30112
2017-04-19T05:55:08.186Z,29184
2017-04-19T05:56:30.354Z,28512
2017-04-19T05:57:52.644Z,29632
2017-04-19T05:59:14.534Z,30144
2017-04-19T06:00:36.810Z,30624
2017-04-19T06:01:58.669Z,31072
2017-04-19T06:03:20.757Z,31040
2017-04-19T06:04:42.600Z,29536
2017-04-19T06:06:04.415Z,30688
2017-04-19T06:07:25.629Z,32768
2017-04-19T06:08:48.028Z,32928
2017-04-19T06:10:10.598Z,32960
2017-04-19T06:11:32.931Z,33600
2017-04-19T06:12:55.176Z,35328
2017-04-19T06:14:16.998Z,36160
2017-04-19T06:15:38.820Z,36544
2017-04-19T06:17:00.657Z,36128
2017-04-19T06:18:22.832Z,36448
2017-04-19T06:19:44.910Z,36928
2017-04-19T06:21:06.761Z,37920
2017-04-19T06:22:29.245Z,38144
2017-04-19T06:23:51.738Z,38240
2017-04-19T06:25:14.300Z,40576
2017-04-19T06:26:36.723Z,42016
2017-04-19T06:27:58.890Z,42880
2017-04-19T06:29:21.459Z,43424
2017-04-19T06:30:43.871Z,42048
2017-04-19T06:32:06.561Z,41760
2017-04-19T06:33:28.390Z,42816
2017-04-19T06:34:50.880Z,43328
2017-04-19T06:36:13.726Z,43648
2017-04-19T06:37:35.644Z,44128
2017-04-19T06:38:57.579Z,43840
2017-04-19T06:40:20.050Z,43968
2017-04-19T06:41:42.530Z,44224
2017-04-19T06:43:04.355Z,44256
2017-04-19T06:44:26.623Z,46528
2017-04-19T06:45:48.267Z,47840
2017-04-19T06:47:10.051Z,47552
2017-04-19T06:48:32.199Z,45728
2017-04-19T06:49:53.716Z,47552
2017-04-19T06:51:15.865Z,47680
2017-04-19T06:52:37.951Z,49024
2017-04-19T06:53:59.468Z,48608
2017-04-19T06:55:20.701Z,48480
2017-04-19T06:56:42.869Z,51520
2017-04-19T06:58:04.742Z,47968
2017-04-19T06:59:26.583Z,34240
2017-04-19T07:00:48.120Z,22848
2017-04-19T07:02:09.007Z,19456
2017-04-19T07:03:31.249Z,19072
2017-04-19T07:04:53.419Z,18816
2017-04-19T07:06:14.922Z,18560
2017-04-19T07:07:37.628Z,18336
2017-04-19T07:08:59.961Z,17984
2017-04-19T07:10:22.439Z,17632
2017-04-19T07:11:44.269Z,17280
2017-04-19T07:13:06.451Z,16896
2017-04-19T07:14:28.932Z,16608
2017-04-19T07:15:50.140Z,16228
2017-04-19T07:17:11.678Z,15900
2017-04-19T07:18:33.202Z,15704
2017-04-19T07:19:55.308Z,15412
2017-04-19T07:21:16.951Z,15184
2017-04-19T07:22:39.242Z,14932
2017-04-19T07:24:01.158Z,14596
2017-04-19T07:25:22.749Z,14376
2017-04-19T07:26:45.239Z,14140
2017-04-19T07:28:07.408Z,13908
2017-04-19T07:29:29.256Z,13696
2017-04-19T07:30:51.712Z,13460
2017-04-19T07:32:13.249Z,13240
2017-04-19T07:33:35.769Z,13044
2017-04-19T07:34:56.989Z,12824
2017-04-19T07:36:19.139Z,12580
2017-04-19T07:37:40.388Z,12336
2017-04-19T07:39:02.619Z,12200
2017-04-19T07:40:24.530Z,11960
2017-04-19T07:41:47.070Z,11712
2017-04-19T07:43:08.853Z,11480
2017-04-19T07:44:31.188Z,11292
2017-04-19T07:45:52.727Z,11000
2017-04-19T07:47:14.805Z,10696
2017-04-19T07:48:36.769Z,10420
2017-04-19T07:49:58.662Z,9896
2017-04-19T07:51:20.520Z,8784
2017-04-19T07:52:43.095Z,7996
2017-04-19T07:54:04.991Z,7508
2017-04-19T07:55:26.689Z,7432
2017-04-19T07:56:47.957Z,7312
2017-04-19T07:58:10.690Z,7388
2017-04-19T07:59:32.558Z,7308
2017-04-19T08:00:54.719Z,6588
2017-04-19T08:02:16.554Z,7656
2017-04-19T08:03:39.089Z,8172
2017-04-19T08:05:00.942Z,8220
2017-04-19T08:06:23.097Z,7596
2017-04-19T08:07:45.065Z,7396
2017-04-19T08:09:07.222Z,8304
2017-04-19T08:10:29.620Z,8776
2017-04-19T08:11:51.445Z,7936
2017-04-19T08:13:13.347Z,7540
2017-04-19T08:14:35.893Z,7268
2017-04-19T08:15:58.291Z,6512
2017-04-19T08:17:20.558Z,6876
2017-04-19T08:18:43.036Z,7004
2017-04-19T08:20:05.748Z,7260
2017-04-19T08:21:28.150Z,8016
2017-04-19T08:22:50.310Z,8452
2017-04-19T08:24:12.777Z,9336
2017-04-19T08:25:33.971Z,9472
2017-04-19T08:26:56.119Z,8796
2017-04-19T08:28:18.548Z,8920
2017-04-19T08:29:40.709Z,8272
2017-04-19T08:31:03.127Z,8848
2017-04-19T08:32:24.634Z,9592
2017-04-19T08:33:46.459Z,10512
2017-04-19T08:35:07.979Z,9964
2017-04-19T08:36:30.719Z,9772
2017-04-19T08:37:52.881Z,9008
2017-04-19T08:39:15.139Z,8332
2017-04-19T08:40:37.098Z,8720
2017-04-19T08:41:59.819Z,9176
2017-04-19T08:43:21.636Z,9872
2017-04-19T08:44:43.785Z,11276
2017-04-19T08:46:06.337Z,9236
2017-04-19T08:47:28.120Z,9412
2017-04-19T08:48:50.594Z,10972
2017-04-19T08:50:12.751Z,11436
2017-04-19T08:51:35.225Z,11316
2017-04-19T08:52:57.681Z,12832
2017-04-19T08:54:19.825Z,14032
2017-04-19T08:55:41.658Z,13496
2017-04-19T08:57:03.837Z,10592
2017-04-19T08:58:26.118Z,8900
2017-04-19T08:59:48.274Z,7384
2017-04-19T09:01:10.425Z,7824
2017-04-19T09:02:32.594Z,8448
2017-04-19T09:03:55.329Z,8612
2017-04-19T09:05:17.175Z,8304
2017-04-19T09:06:39.365Z,8488
2017-04-19T09:08:01.341Z,8336
2017-04-19T09:09:24.137Z,8864
2017-04-19T09:10:46.399Z,9596
2017-04-19T09:12:08.560Z,8840
2017-04-19T09:13:30.736Z,9160
2017-04-19T09:14:53.271Z,9932
2017-04-19T09:16:15.176Z,10888
2017-04-19T09:17:37.139Z,11608
2017-04-19T09:18:59.286Z,11292
2017-04-19T09:20:21.228Z,11800
2017-04-19T09:21:42.437Z,10828
2017-04-19T09:23:04.059Z,9908
2017-04-19T09:24:26.216Z,8236
2017-04-19T09:25:48.749Z,7740
2017-04-19T09:27:10.707Z,7688
2017-04-19T09:28:33.056Z,8004
2017-04-19T09:29:55.190Z,8564
2017-04-19T09:31:17.320Z,9528
2017-04-19T09:32:39.468Z,10596
2017-04-19T09:34:01.419Z,11716
2017-04-19T09:35:23.889Z,11856
2017-04-19T09:36:46.326Z,11248
2017-04-19T09:38:08.789Z,11180
2017-04-19T09:39:30.931Z,10468
2017-04-19T09:40:53.431Z,10472
2017-04-19T09:42:17.054Z,10504
2017-04-19T09:43:40.052Z,9940
2017-04-19T09:45:02.671Z,10116
2017-04-19T09:46:24.254Z,10768
2017-04-19T09:47:47.062Z,11812
2017-04-19T09:49:09.278Z,13472
2017-04-19T09:50:30.819Z,14496
2017-04-19T09:51:52.831Z,14060
2017-04-19T09:53:15.667Z,13704
2017-04-19T09:54:37.508Z,14272
2017-04-19T09:55:59.339Z,14652
2017-04-19T09:57:21.493Z,12664
2017-04-19T09:58:44.278Z,10940
2017-04-19T10:00:06.501Z,11044
2017-04-19T10:01:28.781Z,12156
2017-04-19T10:02:51.042Z,14216
2017-04-19T10:04:12.800Z,15524
2017-04-19T10:05:34.639Z,17344
2017-04-19T10:06:57.140Z,17696
2017-04-19T10:08:19.605Z,16640
2017-04-19T10:09:41.731Z,15548
2017-04-19T10:11:04.269Z,15388
2017-04-19T10:12:26.119Z,15288
2017-04-19T10:13:48.609Z,15776
2017-04-19T10:15:11.051Z,16608
2017-04-19T10:16:33.205Z,17216
2017-04-19T10:17:55.534Z,17376
2017-04-19T10:19:17.778Z,17376
2017-04-19T10:20:39.393Z,17472
2017-04-19T10:22:01.280Z,17504
2017-04-19T10:23:23.417Z,17088
2017-04-19T10:24:45.296Z,17088
2017-04-19T10:26:07.797Z,17056
2017-04-19T10:27:30.067Z,16608
2017-04-19T10:28:51.596Z,15844
2017-04-19T10:30:15.801Z,15164
2017-04-19T10:31:38.568Z,15064
2017-04-19T10:33:00.750Z,16736
2017-04-19T10:34:22.897Z,18560
2017-04-19T10:35:45.488Z,16320
2017-04-19T10:37:07.971Z,13668
2017-04-19T10:38:30.455Z,12060
2017-04-19T10:39:52.297Z,10872
2017-04-19T10:41:14.546Z,10176
2017-04-19T10:42:36.651Z,9656
2017-04-19T10:43:58.799Z,9048
2017-04-19T10:45:21.269Z,8496
2017-04-19T10:46:43.837Z,8516
2017-04-19T10:48:06.769Z,9124
2017-04-19T10:49:29.349Z,10268
2017-04-19T10:50:51.991Z,11888
2017-04-19T10:52:14.461Z,13704
2017-04-19T10:53:36.980Z,15612
2017-04-19T10:54:59.125Z,17792
2017-04-19T10:56:20.973Z,19104
2017-04-19T10:57:43.437Z,19552
2017-04-19T10:59:06.410Z,19680
2017-04-19T11:00:28.241Z,19968
2017-04-19T11:01:50.700Z,20544
2017-04-19T11:03:13.001Z,21152
2017-04-19T11:04:35.471Z,21472
2017-04-19T11:05:56.970Z,22272
2017-04-19T11:07:18.840Z,22400
2017-04-19T11:08:40.399Z,22272
2017-04-19T11:10:03.136Z,22240
2017-04-19T11:11:25.609Z,22112
2017-04-19T11:12:48.290Z,22048
2017-04-19T11:14:10.137Z,22080
2017-04-19T11:15:32.332Z,22048
2017-04-19T11:16:54.020Z,21856
2017-04-19T11:18:16.218Z,21632
2017-04-19T11:19:38.389Z,21248
2017-04-19T11:21:00.928Z,20960
2017-04-19T11:22:23.196Z,20288
2017-04-19T11:23:45.125Z,19456
2017-04-19T11:25:07.614Z,18112
2017-04-19T11:26:30.368Z,16864
2017-04-19T11:27:51.877Z,15424
2017-04-19T11:29:14.088Z,14720
2017-04-19T11:30:36.269Z,13856
2017-04-19T11:31:58.568Z,12752
2017-04-19T11:33:21.071Z,11492
2017-04-19T11:34:43.559Z,11124
2017-04-19T11:36:05.746Z,11236
2017-04-19T11:37:28.520Z,12788
2017-04-19T11:38:50.708Z,14744
2017-04-19T11:40:12.810Z,18240
2017-04-19T11:41:35.048Z,21376
2017-04-19T11:42:57.539Z,22496
2017-04-19T11:44:19.689Z,21696
2017-04-19T11:45:42.167Z,20192
2017-04-19T11:47:04.325Z,18528
2017-04-19T11:48:27.136Z,17344
2017-04-19T11:49:49.504Z,16160
2017-04-19T11:51:11.465Z,14792
2017-04-19T11:52:33.310Z,13492
2017-04-19T11:53:55.130Z,12312
2017-04-19T11:55:17.390Z,10964
2017-04-19T11:56:39.864Z,10024
2017-04-19T11:58:02.019Z,9140
2017-04-19T11:59:24.447Z,8524
2017-04-19T12:00:46.281Z,8476
2017-04-19T12:02:08.783Z,8824
2017-04-19T12:03:30.596Z,9260
2017-04-19T12:04:52.953Z,9840
2017-04-19T12:06:15.120Z,10408
2017-04-19T12:07:37.379Z,10684
2017-04-19T12:09:00.080Z,10512
2017-04-19T12:10:22.898Z,10244
2017-04-19T12:11:45.278Z,10184
2017-04-19T12:13:07.537Z,10360
2017-04-19T12:14:29.811Z,10788
2017-04-19T12:15:52.288Z,11304
2017-04-19T12:17:13.878Z,11976
2017-04-19T12:18:36.378Z,13060
2017-04-19T12:19:58.219Z,14452
2017-04-19T12:21:20.997Z,16064
2017-04-19T12:22:42.848Z,17472
2017-04-19T12:24:04.453Z,18624
2017-04-19T12:25:26.671Z,19264
2017-04-19T12:26:49.297Z,19552
2017-04-19T12:28:11.440Z,19648
2017-04-19T12:29:33.580Z,19904
2017-04-19T12:30:55.837Z,20416
2017-04-19T12:32:18.607Z,20416
2017-04-19T12:33:40.746Z,20160
2017-04-19T12:35:02.567Z,19264
2017-04-19T12:36:24.732Z,18336
2017-04-19T12:37:46.631Z,17472
2017-04-19T12:39:08.466Z,16448
2017-04-19T12:40:30.940Z,15588
2017-04-19T12:41:52.856Z,15396
2017-04-19T12:43:16.953Z,15092
2017-04-19T12:44:39.598Z,14704
2017-04-19T12:46:02.060Z,14500
2017-04-19T12:47:23.902Z,14276
2017-04-19T12:48:46.308Z,14340
2017-04-19T12:50:08.698Z,14680
2017-04-19T12:51:30.548Z,14796
2017-04-19T12:52:52.700Z,14916
2017-04-19T12:54:15.334Z,15396
2017-04-19T12:55:36.577Z,16448
2017-04-19T12:56:58.841Z,17472
2017-04-19T12:58:20.959Z,17632
2017-04-19T12:59:43.499Z,16960
2017-04-19T13:01:05.657Z,16160
2017-04-19T13:02:27.887Z,15248
2017-04-19T13:03:49.428Z,14400
2017-04-19T13:05:11.586Z,12932
2017-04-19T13:06:33.746Z,12384
2017-04-19T13:07:55.909Z,12636
2017-04-19T13:09:18.132Z,13300
2017-04-19T13:10:40.823Z,14092
2017-04-19T13:12:03.286Z,14876
2017-04-19T13:13:25.448Z,15540
2017-04-19T13:14:47.810Z,16192
2017-04-19T13:16:10.261Z,16704
2017-04-19T13:17:32.426Z,17056
2017-04-19T13:18:54.900Z,17152
2017-04-19T13:20:16.753Z,17344
2017-04-19T13:21:39.650Z,17504
2017-04-19T13:23:02.257Z,17344
2017-04-19T13:24:23.768Z,16960
2017-04-19T13:25:45.731Z,16512
2017-04-19T13:27:07.887Z,15960
2017-04-19T13:28:30.055Z,15180
2017-04-19T13:29:52.658Z,14072
2017-04-19T13:31:15.146Z,12516
2017-04-19T13:32:37.363Z,10740
2017-04-19T13:34:00.070Z,9172
2017-04-19T13:35:21.899Z,7756
2017-04-19T13:36:43.718Z,6592
2017-04-19T13:38:06.217Z,5880
2017-04-19T13:39:28.699Z,5576
2017-04-19T13:40:51.155Z,5480
2017-04-19T13:42:13.741Z,5496
2017-04-19T13:43:36.152Z,5512
2017-04-19T13:44:58.850Z,5572
2017-04-19T13:46:21.458Z,5624
2017-04-19T13:47:43.959Z,5680
2017-04-19T13:49:06.742Z,5920
2017-04-19T13:50:28.290Z,6392
2017-04-19T13:51:50.124Z,6468
2017-04-19T13:53:12.296Z,6476
2017-04-19T13:54:35.137Z,6568
2017-04-19T13:55:57.595Z,6748
2017-04-19T13:57:20.051Z,7012
2017-04-19T13:58:42.529Z,7040
2017-04-19T14:00:05.066Z,7232
2017-04-19T14:01:26.999Z,7600
2017-04-19T14:02:49.189Z,7912
2017-04-19T14:04:11.426Z,7964
2017-04-19T14:05:34.174Z,7528
2017-04-19T14:06:56.319Z,7380
2017-04-19T14:08:18.479Z,7280
2017-04-19T14:09:40.002Z,7488
2017-04-19T14:11:02.667Z,7724
2017-04-19T14:12:24.829Z,7856
2017-04-19T14:13:47.475Z,8892
2017-04-19T14:15:08.794Z,9056
2017-04-19T14:16:31.351Z,10172
2017-04-19T14:17:53.477Z,11616
2017-04-19T14:19:15.951Z,12764
2017-04-19T14:20:37.874Z,13684
2017-04-19T14:21:59.931Z,14204
2017-04-19T14:23:22.118Z,13544
2017-04-19T14:24:44.271Z,12824
2017-04-19T14:26:06.425Z,12708
2017-04-19T14:27:28.888Z,12044
2017-04-19T14:28:51.144Z,11472
2017-04-19T14:30:13.301Z,10124
2017-04-19T14:31:35.148Z,9292
2017-04-19T14:32:57.711Z,8548
2017-04-19T14:34:19.971Z,7924
2017-04-19T14:35:42.113Z,7528
2017-04-19T14:37:04.728Z,7496
2017-04-19T14:38:27.149Z,7640
2017-04-19T14:39:49.619Z,8012
2017-04-19T14:41:12.110Z,8520
2017-04-19T14:42:34.142Z,9104
2017-04-19T14:43:55.898Z,9860
2017-04-19T14:45:18.384Z,10420
2017-04-19T14:46:40.627Z,10776
2017-04-19T14:48:02.517Z,10920
2017-04-19T14:49:24.307Z,11064
2017-04-19T14:50:46.777Z,11532
2017-04-19T14:52:08.923Z,11928
2017-04-19T14:53:30.828Z,12084
2017-04-19T14:54:53.199Z,12056
2017-04-19T14:56:15.355Z,12188
2017-04-19T14:57:37.562Z,12252
2017-04-19T14:58:59.998Z,12080
2017-04-19T15:00:22.633Z,11808
2017-04-19T15:01:44.808Z,11400
2017-04-19T15:03:06.667Z,10756
2017-04-19T15:04:28.730Z,9824
2017-04-19T15:05:51.318Z,8832
2017-04-19T15:07:13.471Z,7816
2017-04-19T15:08:35.611Z,7424
2017-04-19T15:09:57.466Z,8172
2017-04-19T15:11:19.872Z,9612
2017-04-19T15:12:42.295Z,11228
2017-04-19T15:14:04.482Z,12464
2017-04-19T15:15:26.971Z,12404
2017-04-19T15:16:49.517Z,11944
2017-04-19T15:18:11.391Z,11760
2017-04-19T15:19:33.890Z,11884
2017-04-19T15:20:56.477Z,11408
2017-04-19T15:22:18.586Z,11176
2017-04-19T15:23:41.084Z,10316
2017-04-19T15:25:03.334Z,9740
2017-04-19T15:26:25.488Z,9152
2017-04-19T15:27:47.593Z,8572
2017-04-19T15:29:09.476Z,8076
2017-04-19T15:30:30.687Z,7868
2017-04-19T15:31:53.421Z,7944
2017-04-19T15:33:15.893Z,7908
2017-04-19T15:34:38.078Z,7792
2017-04-19T15:36:00.588Z,7408
2017-04-19T15:37:23.119Z,6448
2017-04-19T15:38:45.377Z,5760
2017-04-19T15:40:07.273Z,5432
2017-04-19T15:41:29.568Z,5352
2017-04-19T15:42:51.750Z,5328
2017-04-19T15:44:14.520Z,5300
2017-04-19T15:45:37.002Z,5324
2017-04-19T15:46:59.191Z,5596
2017-04-19T15:48:21.025Z,6176
2017-04-19T15:49:43.776Z,6936
2017-04-19T15:51:06.043Z,7536
2017-04-19T15:52:28.537Z,8052
2017-04-19T15:53:50.700Z,8456
2017-04-19T15:55:13.438Z,8692
2017-04-19T15:56:35.276Z,8760
2017-04-19T15:57:57.759Z,8732
2017-04-19T15:59:19.926Z,8676
2017-04-19T16:00:42.028Z,8616
2017-04-19T16:02:04.200Z,8576
2017-04-19T16:03:27.016Z,8352
2017-04-19T16:04:49.977Z,7796
2017-04-19T16:06:12.486Z,7260
2017-04-19T16:07:35.024Z,7116
2017-04-19T16:08:56.576Z,7328
2017-04-19T16:10:19.046Z,7672
2017-04-19T16:11:41.509Z,7896
2017-04-19T16:13:03.688Z,7964
2017-04-19T16:14:26.391Z,7872
2017-04-19T16:15:48.578Z,7684
2017-04-19T16:17:11.307Z,7408
2017-04-19T16:18:33.807Z,7064
2017-04-19T16:19:56.292Z,6656
2017-04-19T16:21:18.189Z,6384
2017-04-19T16:22:40.758Z,6252
2017-04-19T16:24:03.237Z,6112
2017-04-19T16:25:25.438Z,6060
2017-04-19T16:26:47.878Z,6008
2017-04-19T16:28:09.967Z,5780
2017-04-19T16:29:31.857Z,5416
2017-04-19T16:30:53.821Z,5088
2017-04-19T16:32:16.037Z,4836
2017-04-19T16:33:38.643Z,4680
2017-04-19T16:35:00.174Z,4628
2017-04-19T16:36:22.036Z,4860
2017-04-19T16:37:44.535Z,4880
2017-04-19T16:39:06.717Z,5272
2017-04-19T16:40:28.988Z,5924
2017-04-19T16:41:50.847Z,6728
2017-04-19T16:43:12.941Z,6908
2017-04-19T16:44:34.761Z,6592
2017-04-19T16:45:55.962Z,6012
2017-04-19T16:47:18.602Z,5368
2017-04-19T16:48:40.755Z,5028
2017-04-19T16:50:03.637Z,4696
2017-04-19T16:51:26.127Z,4280
2017-04-19T16:52:48.725Z,4076
2017-04-19T16:54:11.271Z,4044
2017-04-19T16:55:34.077Z,4096
2017-04-19T16:56:56.634Z,4300
2017-04-19T16:58:18.805Z,4372
2017-04-19T16:59:40.982Z,4500
2017-04-19T17:01:03.449Z,4688
2017-04-19T17:02:25.264Z,4900
2017-04-19T17:03:46.783Z,5068
2017-04-19T17:05:09.080Z,5060
2017-04-19T17:06:31.267Z,4896
2017-04-19T17:07:53.737Z,4720
2017-04-19T17:09:16.227Z,4548
2017-04-19T17:10:38.799Z,4240
2017-04-19T17:12:01.255Z,3992
2017-04-19T17:13:23.417Z,3812
2017-04-19T17:14:45.245Z,3624
2017-04-19T17:16:07.420Z,3460
2017-04-19T17:17:29.995Z,3380
2017-04-19T17:18:52.631Z,3360
2017-04-19T17:20:14.824Z,3328
2017-04-19T17:21:37.335Z,3264
2017-04-19T17:22:59.556Z,3220
2017-04-19T17:24:22.207Z,3192
2017-04-19T17:25:44.123Z,3148
2017-04-19T17:27:06.079Z,3072
2017-04-19T17:28:28.546Z,3008
2017-04-19T17:29:50.775Z,2984
2017-04-19T17:31:12.938Z,2976
2017-04-19T17:32:35.448Z,2968
2017-04-19T17:33:57.653Z,2960
2017-04-19T17:35:19.539Z,2940
2017-04-19T17:36:41.924Z,2900
2017-04-19T17:38:03.874Z,2840
2017-04-19T17:39:26.416Z,2740
2017-04-19T17:40:48.613Z,2800
2017-04-19T17:42:10.724Z,2804
2017-04-19T17:43:33.325Z,2776
2017-04-19T17:44:55.686Z,2696
2017-04-19T17:46:17.315Z,2564
2017-04-19T17:47:39.204Z,2400
2017-04-19T17:49:00.736Z,2228
2017-04-19T17:50:22.915Z,2072
2017-04-19T17:51:44.874Z,1924
2017-04-19T17:53:07.174Z,1812
2017-04-19T17:54:29.357Z,1692
2017-04-19T17:55:51.518Z,1564
2017-04-19T17:57:13.995Z,1468
2017-04-19T17:58:35.850Z,1404
2017-04-19T17:59:57.719Z,1360
2017-04-19T18:01:19.851Z,1312
2017-04-19T18:02:41.370Z,1256
2017-04-19T18:04:03.975Z,1204
2017-04-19T18:05:26.224Z,1156
2017-04-19T18:06:48.625Z,1112
2017-04-19T18:08:10.143Z,1076
2017-04-19T18:09:32.048Z,1040
2017-04-19T18:10:53.593Z,988
2017-04-19T18:12:16.057Z,912
2017-04-19T18:13:38.226Z,836
2017-04-19T18:15:00.367Z,756
2017-04-19T18:16:22.876Z,680
2017-04-19T18:17:45.040Z,612
2017-04-19T18:19:07.895Z,552
2017-04-19T18:20:29.976Z,492
2017-04-19T18:21:51.808Z,444
2017-04-19T18:23:14.597Z,392
2017-04-19T18:24:37.065Z,348